Peterborough Airport
CYPQ : now visible

Airfield :











YOU CAN JOIN US ON...

 
LOGIN :

Register | Disclaimer

   EN    FR    IT 

 









Legend :    VFR   Marginal VFR   IFR   Intensive IFR   Very Intensive IFR
Visi :
Ceiling :
>= 8 km
>= 3000ft
5 to 8 km
1000 to 3000 ft
1500m to 5 km
500 to 1000 ft
800 to 1500m
200 to 500 ft
< 800m
< 200 ft
Symbols :   Thunderstorms  Fog  Heavy snow  Heavy precipitations  Wind > 20 kt






- Airport Elevation : 628 ft
- IATA code : YPQ


CYPQ - Peterborough

CURRENT METAR :
  • 061200Z AUTO 28003KT 270V340 9SM CLR 18/14 A2985 RMK SLP110 DENSITY ALT 1100FT

EXPIRED METARs :
  • 061100Z AUTO 30003KT 240V010 9SM CLR 16/13 A2983 RMK SLP103 DENSITY ALT 900FT
  • 061000Z AUTO 29005KT 9SM CLR 14/13 A2981 RMK SLP096 DENSITY ALT 700FT

TAF TAF CYPQ
Valid from the 06 at 10:00 until the 06 at 22:00 UTC


060938Z 0610/0622 30005KT P6SM BKN080
TEMPO 0610/0612 3SM BR
PROB30 0610/0612 3/4SM BR
FM061200 30010G20KT P6SM SKC
FM061700 28010G20KT P6SM SCT050
FM062000 30010G20KT P6SM BKN070
PROB30 0620/0622 2SM TSRA BR BKN020 OVC050CB RMK FCST BASED ON AUTO OBS. NXT FCST BY 061400Z
CZYZ FIR / North America



MET'MAP, your aeronautical weather chart ! - Copyright ORBIFLY December 2007 - Disclaimer

ORBIFLY MET'MAP TEAM :

Programming & Development : Alexandra Zaïnal
Concept & original design : Baudouin d'Aumeries
Assistance for programming : Marc-Olivier Méhu
Technical & hardware support : Manuel Goepfert

Contact : metmap@orbifly.com




SOURCES & CREDITS :

   NOAA       Earth
Advisory